Time,TemperatureF,DewpointF,PressureIn,WindDirection,WindDirectionDegrees,WindSpeedMPH,WindSpeedGustMPH,Humidity,HourlyPrecipIn,Conditions,Clouds,dailyrainin,SoftwareType,DateUTC
2013-07-20 00:01:00,71.7,71.0,30.03,East,82,0.0,0.0,98,0.00,,,0.34,weatherlink.com 1.10,2013-07-20 05:01:00,
2013-07-20 00:16:00,72.0,72.0,30.03,East,83,0.0,0.0,99,0.00,,,0.00,weatherlink.com 1.10,2013-07-20 05:16:00,
2013-07-20 00:31:00,72.0,72.0,30.02,East,83,0.0,0.0,99,0.00,,,0.00,weatherlink.com 1.10,2013-07-20 05:31:00,
2013-07-20 00:46:00,72.0,72.0,30.02,East,84,0.0,0.0,99,0.00,,,0.00,weatherlink.com 1.10,2013-07-20 05:46:00,
2013-07-20 01:01:00,71.9,72.0,30.02,East,83,0.0,0.0,99,0.00,,,0.00,weatherlink.com 1.10,2013-07-20 06:01:00,
2013-07-20 01:16:00,71.9,72.0,30.01,East,83,0.0,0.0,99,0.00,,,0.00,weatherlink.com 1.10,2013-07-20 06:16:00,
2013-07-20 01:31:00,71.9,72.0,30.00,East,82,0.0,0.0,99,0.00,,,0.00,weatherlink.com 1.10,2013-07-20 06:31:00,
2013-07-20 01:46:00,71.8,72.0,30.00,East,82,0.0,0.0,99,0.00,,,0.00,weatherlink.com 1.10,2013-07-20 06:46:00,
2013-07-20 02:01:00,71.7,71.0,30.00,East,86,0.0,0.0,99,0.00,,,0.00,weatherlink.com 1.10,2013-07-20 07:01:00,
2013-07-20 02:16:00,71.9,72.0,29.99,ENE,71,0.0,2.0,99,0.00,,,0.00,weatherlink.com 1.10,2013-07-20 07:16:00,
2013-07-20 02:31:00,71.9,72.0,29.99,ESE,108,1.0,3.0,99,0.00,,,0.00,weatherlink.com 1.10,2013-07-20 07:31:00,
2013-07-20 02:46:00,71.9,72.0,29.99,East,94,0.0,1.0,99,0.00,,,0.00,weatherlink.com 1.10,2013-07-20 07:46:00,
2013-07-20 03:01:00,72.1,72.0,29.99,East,87,1.0,2.0,99,0.00,,,0.00,weatherlink.com 1.10,2013-07-20 08:01:00,
2013-07-20 03:16:00,72.2,72.0,29.99,ESE,104,0.0,1.0,99,0.00,,,0.00,weatherlink.com 1.10,2013-07-20 08:16:00,
2013-07-20 03:31:00,72.2,72.0,29.98,ENE,74,1.0,2.0,99,0.00,,,0.00,weatherlink.com 1.10,2013-07-20 08:31:00,
2013-07-20 03:46:00,72.4,72.0,29.98,East,79,2.0,2.0,99,0.00,,,0.00,weatherlink.com 1.10,2013-07-20 08:46:00,
2013-07-20 04:01:00,72.6,72.0,29.98,East,86,1.0,2.0,99,0.00,,,0.00,weatherlink.com 1.10,2013-07-20 09:01:00,
2013-07-20 04:16:00,72.6,72.0,29.98,East,83,0.0,3.0,99,0.00,,,0.00,weatherlink.com 1.10,2013-07-20 09:16:00,
2013-07-20 04:31:00,72.7,72.0,29.98,East,83,0.0,1.0,99,0.00,,,0.00,weatherlink.com 1.10,2013-07-20 09:31:00,
2013-07-20 04:46:00,72.7,72.0,29.99,East,83,1.0,2.0,99,0.00,,,0.00,weatherlink.com 1.10,2013-07-20 09:46:00,
2013-07-20 05:01:00,72.8,73.0,29.99,East,84,0.0,3.0,99,0.00,,,0.00,weatherlink.com 1.10,2013-07-20 10:01:00,
2013-07-20 05:16:00,72.9,73.0,30.00,East,83,0.0,3.0,99,0.00,,,0.00,weatherlink.com 1.10,2013-07-20 10:16:00,
2013-07-20 05:31:00,72.9,73.0,30.00,East,82,1.0,2.0,99,0.00,,,0.00,weatherlink.com 1.10,2013-07-20 10:31:00,
2013-07-20 05:46:00,72.9,73.0,30.00,East,86,1.0,2.0,99,0.00,,,0.00,weatherlink.com 1.10,2013-07-20 10:46:00,
2013-07-20 06:01:00,72.9,73.0,30.00,East,86,1.0,3.0,99,0.00,,,0.00,weatherlink.com 1.10,2013-07-20 11:01:00,
2013-07-20 06:16:00,72.9,73.0,30.01,East,81,1.0,3.0,99,0.00,,,0.00,weatherlink.com 1.10,2013-07-20 11:16:00,
2013-07-20 06:32:00,73.1,73.0,30.01,ENE,67,1.0,4.0,99,0.02,,,0.02,weatherlink.com 1.10,2013-07-20 11:32:00,
2013-07-20 06:46:00,73.3,73.0,30.01,ENE,77,0.0,4.0,99,0.03,,,0.03,weatherlink.com 1.10,2013-07-20 11:46:00,
2013-07-20 07:01:00,73.5,73.0,30.01,East,100,2.0,3.0,99,0.03,,,0.03,weatherlink.com 1.10,2013-07-20 12:01:00,
2013-07-20 07:16:00,73.7,73.0,30.01,ENE,60,2.0,4.0,99,0.03,,,0.03,weatherlink.com 1.10,2013-07-20 12:16:00,
2013-07-20 07:31:00,74.0,74.0,30.01,East,93,2.0,5.0,99,0.01,,,0.03,weatherlink.com 1.10,2013-07-20 12:31:00,
2013-07-20 07:46:00,74.2,74.0,30.02,East,92,1.0,3.0,99,0.01,,,0.04,weatherlink.com 1.10,2013-07-20 12:46:00,
2013-07-20 08:01:00,74.4,74.0,30.02,ENE,69,2.0,2.0,99,0.01,,,0.04,weatherlink.com 1.10,2013-07-20 13:01:00,
2013-07-20 08:16:00,74.5,74.0,30.02,ENE,75,3.0,4.0,99,0.01,,,0.04,weatherlink.com 1.10,2013-07-20 13:16:00,
2013-07-20 08:31:00,74.7,74.0,30.02,East,84,2.0,4.0,99,0.02,,,0.05,weatherlink.com 1.10,2013-07-20 13:31:00,
2013-07-20 08:46:00,74.7,74.0,30.02,East,97,1.0,3.0,99,0.01,,,0.05,weatherlink.com 1.10,2013-07-20 13:46:00,
2013-07-20 09:01:00,74.8,75.0,30.02,East,97,0.0,4.0,99,0.01,,,0.05,weatherlink.com 1.10,2013-07-20 14:01:00,
2013-07-20 09:16:00,75.1,75.0,30.03,ESE,119,1.0,2.0,99,0.01,,,0.05,weatherlink.com 1.10,2013-07-20 14:16:00,
2013-07-20 09:31:00,75.3,75.0,30.03,East,96,0.0,3.0,98,0.01,,,0.06,weatherlink.com 1.10,2013-07-20 14:31:00,
2013-07-20 09:47:00,75.6,75.0,30.04,East,91,2.0,5.0,98,0.01,,,0.06,weatherlink.com 1.10,2013-07-20 14:47:00,
2013-07-20 10:02:00,76.1,76.0,30.03,SE,130,3.0,6.0,98,0.01,,,0.06,weatherlink.com 1.10,2013-07-20 15:02:00,
2013-07-20 10:17:00,77.5,76.0,30.03,ESE,108,5.0,6.0,95,0.01,,,0.06,weatherlink.com 1.10,2013-07-20 15:17:00,
2013-07-20 10:32:00,79.2,76.0,30.02,SW,231,1.0,5.0,90,0.00,,,0.06,weatherlink.com 1.10,2013-07-20 15:32:00,
2013-07-20 10:47:00,80.4,76.0,30.03,ESE,108,3.0,4.0,87,0.00,,,0.06,weatherlink.com 1.10,2013-07-20 15:47:00,
2013-07-20 11:02:00,80.8,77.0,30.03,ENE,68,2.0,7.0,88,0.00,,,0.06,weatherlink.com 1.10,2013-07-20 16:02:00,
2013-07-20 11:17:00,80.1,76.0,30.04,SSE,160,0.0,4.0,87,0.00,,,0.06,weatherlink.com 1.10,2013-07-20 16:17:00,
2013-07-20 11:32:00,79.0,76.0,30.03,SE,142,1.0,5.0,89,0.00,,,0.06,weatherlink.com 1.10,2013-07-20 16:32:00,
2013-07-20 11:47:00,78.7,76.0,30.02,SE,129,1.0,5.0,90,0.00,,,0.06,weatherlink.com 1.10,2013-07-20 16:47:00,
2013-07-20 12:02:00,78.2,75.0,30.02,ESE,102,2.0,4.0,91,0.00,,,0.06,weatherlink.com 1.10,2013-07-20 17:02:00,
2013-07-20 12:17:00,77.8,75.0,30.01,ENE,60,2.0,5.0,92,0.00,,,0.06,weatherlink.com 1.10,2013-07-20 17:17:00,
2013-07-20 12:32:00,77.7,75.0,30.02,ENE,63,2.0,4.0,92,0.00,,,0.06,weatherlink.com 1.10,2013-07-20 17:32:00,
2013-07-20 12:47:00,77.2,75.0,30.01,East,99,2.0,5.0,93,0.01,,,0.07,weatherlink.com 1.10,2013-07-20 17:47:00,
2013-07-20 13:02:00,77.5,76.0,30.01,ESE,119,0.0,3.0,94,0.01,,,0.07,weatherlink.com 1.10,2013-07-20 18:02:00,
2013-07-20 13:18:00,77.3,75.0,30.01,ESE,115,2.0,6.0,92,0.02,,,0.08,weatherlink.com 1.10,2013-07-20 18:18:00,
2013-07-20 13:32:00,77.3,75.0,30.00,East,87,1.0,4.0,92,0.02,,,0.08,weatherlink.com 1.10,2013-07-20 18:32:00,
2013-07-20 13:47:00,77.9,76.0,30.00,SE,128,1.0,3.0,93,0.01,,,0.08,weatherlink.com 1.10,2013-07-20 18:47:00,
2013-07-20 14:02:00,78.8,76.0,30.00,ENE,64,2.0,5.0,91,0.01,,,0.08,weatherlink.com 1.10,2013-07-20 19:02:00,
2013-07-20 14:32:00,81.3,77.0,29.98,SSE,165,4.0,5.0,87,0.00,,,0.08,weatherlink.com 1.10,2013-07-20 19:32:00,
2013-07-20 14:47:00,81.4,77.0,29.98,WSW,238,0.0,4.0,85,0.00,,,0.08,weatherlink.com 1.10,2013-07-20 19:47:00,
2013-07-20 15:02:00,80.7,77.0,29.97,SE,146,0.0,2.0,88,0.00,,,0.08,weatherlink.com 1.10,2013-07-20 20:02:00,
2013-07-20 15:18:00,80.0,77.0,29.97,ENE,72,3.0,3.0,89,0.00,,,0.08,weatherlink.com 1.10,2013-07-20 20:18:00,
2013-07-20 15:32:00,80.3,77.0,29.96,South,173,1.0,4.0,89,0.00,,,0.08,weatherlink.com 1.10,2013-07-20 20:32:00,
2013-07-20 15:47:00,81.0,76.0,29.95,NW,322,1.0,5.0,85,0.00,,,0.08,weatherlink.com 1.10,2013-07-20 20:47:00,
2013-07-20 16:02:00,81.5,77.0,29.95,South,184,0.0,3.0,85,0.00,,,0.08,weatherlink.com 1.10,2013-07-20 21:02:00,
2013-07-20 16:17:00,82.5,77.0,29.94,ESE,113,2.0,4.0,83,0.00,,,0.08,weatherlink.com 1.10,2013-07-20 21:17:00,
2013-07-20 16:32:00,83.1,77.0,29.94,SE,127,0.0,6.0,81,0.00,,,0.08,weatherlink.com 1.10,2013-07-20 21:32:00,
2013-07-20 16:47:00,84.1,77.0,29.93,SSW,203,3.0,5.0,79,0.00,,,0.08,weatherlink.com 1.10,2013-07-20 21:47:00,
2013-07-20 17:17:00,85.1,77.0,29.93,NW,326,0.0,4.0,76,0.00,,,0.08,weatherlink.com 1.10,2013-07-20 22:17:00,
2013-07-20 17:32:00,85.4,78.0,29.94,NW,313,1.0,4.0,78,0.00,,,0.08,weatherlink.com 1.10,2013-07-20 22:32:00,
2013-07-20 17:47:00,86.0,77.0,29.93,ESE,115,1.0,4.0,75,0.00,,,0.08,weatherlink.com 1.10,2013-07-20 22:47:00,
2013-07-20 18:02:00,85.8,78.0,29.93,SE,136,0.0,5.0,77,0.00,,,0.08,weatherlink.com 1.10,2013-07-20 23:02:00,
2013-07-20 18:18:00,86.0,77.0,29.93,SE,136,0.0,2.0,75,0.00,,,0.08,weatherlink.com 1.10,2013-07-20 23:18:00,
2013-07-20 18:33:00,84.6,77.0,29.93,NW,325,0.0,4.0,78,0.00,,,0.08,weatherlink.com 1.10,2013-07-20 23:33:00,
2013-07-20 18:48:00,83.6,77.0,29.94,NE,39,0.0,1.0,81,0.00,,,0.08,weatherlink.com 1.10,2013-07-20 23:48:00,
2013-07-20 19:03:00,82.7,78.0,29.94,SSW,207,0.0,1.0,84,0.00,,,0.08,weatherlink.com 1.10,2013-07-21 00:03:00,
2013-07-20 19:33:00,79.9,77.0,29.95,ENE,71,4.0,4.0,89,0.00,,,0.08,weatherlink.com 1.10,2013-07-21 00:33:00,
2013-07-20 19:48:00,79.0,77.0,29.95,East,86,2.0,2.0,93,0.00,,,0.08,weatherlink.com 1.10,2013-07-21 00:48:00,
2013-07-20 20:03:00,78.3,77.0,29.96,ESE,102,0.0,1.0,94,0.00,,,0.08,weatherlink.com 1.10,2013-07-21 01:03:00,
2013-07-20 20:33:00,77.6,76.0,29.96,SSW,210,0.0,1.0,95,0.00,,,0.08,weatherlink.com 1.10,2013-07-21 01:33:00,
2013-07-20 20:48:00,77.4,76.0,29.97,SE,142,1.0,2.0,96,0.00,,,0.08,weatherlink.com 1.10,2013-07-21 01:48:00,
2013-07-20 21:33:00,76.6,75.0,29.99,ENE,77,0.0,2.0,93,0.00,,,0.08,weatherlink.com 1.10,2013-07-21 02:33:00,
2013-07-20 22:03:00,76.0,74.0,30.00,East,79,0.0,1.0,93,0.00,,,0.08,weatherlink.com 1.10,2013-07-21 03:03:00,
2013-07-20 23:03:00,74.7,74.0,30.01,East,97,0.0,1.0,96,0.00,,,0.08,weatherlink.com 1.10,2013-07-21 04:03:00,
2013-07-20 23:18:00,74.4,74.0,30.01,East,86,1.0,1.0,97,0.00,,,0.08,weatherlink.com 1.10,2013-07-21 04:18:00,
2013-07-20 23:33:00,74.4,74.0,30.01,ENE,67,0.0,2.0,97,0.00,,,0.08,weatherlink.com 1.10,2013-07-21 04:33:00,
2013-07-20 23:48:00,74.4,74.0,30.01,East,86,0.0,1.0,98,0.00,,,0.08,weatherlink.com 1.10,2013-07-21 04:48:00,